Nicolas Delmas — C6SF5 — position and weather

sailwx.info

Track history (hours):
 
Tides and Currents Weather Stations Pressure Air Temp Water Temp Dewpoint Dewpoint Depression Visibility Wind Speed Wind Dir Waves Ship Positions

Nicolas Delmas

Last reported at 2018-Jan-21 12:28 UTC. Time now 2018-Jan-23 04:19 UTC.
Position N 34°39' E 033°03'.

Length 196 m; draft 9.6 m.

Type: Ship. MMSI: 311326000.

Date/timePositionNaut miles runAvg speedWind from/ knotsBaromVisibWave heightAir tempDewpointWater temp
2018-Jan-21 12:28N 34°39' E 033°03'2 3.6
2018-Jan-21 12:00N 34°39' E 033°01'0 0.1
2018-Jan-21 11:28N 34°39' E 033°01'0 0.0
2018-Jan-21 10:58N 34°39' E 033°01'0 0.0
2018-Jan-21 10:28N 34°39' E 033°01'0 0.0
2018-Jan-21 09:58N 34°39' E 033°01'0 0.0
2018-Jan-21 09:25N 34°39' E 033°01'0 0.0
2018-Jan-21 08:58N 34°39' E 033°01'0 0.0
2018-Jan-21 08:28N 34°39' E 033°01'0 0.0
2018-Jan-21 07:55N 34°39' E 033°01'0 0.0
2018-Jan-21 07:28N 34°39' E 033°01'0 0.0
2018-Jan-21 06:58N 34°39' E 033°01'0 0.0
2018-Jan-21 06:28N 34°39' E 033°01'0 0.0
2018-Jan-21 05:58N 34°39' E 033°01'0 0.0
2018-Jan-21 05:28N 34°39' E 033°01'0 0.6
2018-Jan-21 05:00N 34°39' E 033°01'2 3.7
2018-Jan-21 04:22N 34°38' E 033°04'0 0.4
2018-Jan-21 04:00N 34°38' E 033°04'157 5.8
2018-Jan-20 00:50N 36°05' E 030°24'411.7
2018-Jan-20 00:30N 36°06' E 030°29'611.5
2018-Jan-20 00:00N 36°09' E 030°35'612.0
2018-Jan-19 23:30N 36°13' E 030°40'611.1
2018-Jan-19 23:00N 36°18' E 030°43'611.3
2018-Jan-19 22:30N 36°24' E 030°43'611.1
2018-Jan-19 22:00N 36°29' E 030°43'611.1
2018-Jan-19 21:30N 36°35' E 030°43'611.4
2018-Jan-19 21:00N 36°41' E 030°43'510.9
2018-Jan-19 20:30N 36°46' E 030°42'510.6
2018-Jan-19 20:00N 36°50' E 030°38'1 1.4
2018-Jan-19 19:29N 36°50' E 030°37'0 0.0
2018-Jan-19 18:59N 36°50' E 030°37'0 0.0
2018-Jan-19 18:29N 36°50' E 030°37'0 0.0
2018-Jan-19 17:59N 36°50' E 030°37'0 0.0
2018-Jan-19 17:29N 36°50' E 030°37'0 0.0
2018-Jan-19 16:59N 36°50' E 030°37'0 0.0
2018-Jan-19 16:29N 36°50' E 030°37'0 0.0
2018-Jan-19 15:59N 36°50' E 030°37'0 0.0
2018-Jan-19 15:29N 36°50' E 030°37'0 0.0
2018-Jan-19 14:59N 36°50' E 030°37'0 0.0
2018-Jan-19 14:29N 36°50' E 030°37'0 0.0
2018-Jan-19 13:59N 36°50' E 030°37'0 0.0
2018-Jan-19 13:29N 36°50' E 030°37'0 0.0
2018-Jan-19 12:56N 36°50' E 030°37'0 0.0
2018-Jan-19 12:29N 36°50' E 030°37'0 0.0
2018-Jan-19 11:59N 36°50' E 030°37'0 0.0
2018-Jan-19 11:29N 36°50' E 030°37'0 0.0
2018-Jan-19 10:59N 36°50' E 030°37'0 0.0
2018-Jan-19 10:29N 36°50' E 030°37'0 0.0
2018-Jan-19 09:59N 36°50' E 030°37'0 0.0
2018-Jan-19 09:29N 36°50' E 030°37'0 0.0
2018-Jan-19 08:59N 36°50' E 030°37'0 0.0
2018-Jan-19 08:29N 36°50' E 030°37'0 0.0
2018-Jan-19 07:59N 36°50' E 030°37'0 0.0
2018-Jan-19 07:29N 36°50' E 030°37'0 0.0
2018-Jan-19 06:59N 36°50' E 030°37'0 0.0
2018-Jan-19 06:29N 36°50' E 030°37'0 0.0
2018-Jan-19 05:59N 36°50' E 030°37'0 0.0
2018-Jan-19 05:29N 36°50' E 030°37'0 0.0
2018-Jan-19 04:59N 36°50' E 030°37'0 0.0
2018-Jan-19 04:29N 36°50' E 030°37'0 0.0
2018-Jan-19 03:59N 36°50' E 030°37'0 0.0
2018-Jan-19 03:29N 36°50' E 030°37'0 0.0
2018-Jan-19 02:59N 36°50' E 030°37'0 0.0
2018-Jan-19 02:29N 36°50' E 030°37'0 0.0
2018-Jan-19 01:59N 36°50' E 030°37'0 0.0
2018-Jan-19 01:29N 36°50' E 030°37'0 0.0
2018-Jan-19 00:59N 36°50' E 030°37'0 0.0
2018-Jan-19 00:29N 36°50' E 030°37'0 0.0
2018-Jan-18 23:59N 36°50' E 030°37'0 0.0
2018-Jan-18 23:29N 36°50' E 030°37'0 0.0
2018-Jan-18 22:59N 36°50' E 030°37'0 0.0
2018-Jan-18 22:29N 36°50' E 030°37'0 0.0
2018-Jan-18 21:59N 36°50' E 030°37'0 0.0
2018-Jan-18 21:29N 36°50' E 030°37'0 0.0
2018-Jan-18 20:59N 36°50' E 030°37'0 0.0
2018-Jan-18 20:29N 36°50' E 030°37'0 0.0
2018-Jan-18 19:59N 36°50' E 030°37'0 0.0
2018-Jan-18 19:29N 36°50' E 030°37'0 0.0
2018-Jan-18 18:59N 36°50' E 030°37'0 0.0
2018-Jan-18 18:29N 36°50' E 030°37'0 0.0
2018-Jan-18 17:59N 36°50' E 030°37'0 0.0
2018-Jan-18 17:29N 36°50' E 030°37'0 0.0
2018-Jan-18 16:59N 36°50' E 030°37'0 0.0
2018-Jan-18 16:29N 36°50' E 030°37'0 0.0
2018-Jan-18 15:59N 36°50' E 030°37'0 0.0
2018-Jan-18 15:29N 36°50' E 030°37'0 0.0
2018-Jan-18 14:56N 36°50' E 030°37'0 0.0
2018-Jan-18 14:29N 36°50' E 030°37'0 0.0
2018-Jan-18 13:59N 36°50' E 030°37'0 0.0
2018-Jan-18 13:29N 36°50' E 030°37'0 0.0
2018-Jan-18 12:59N 36°50' E 030°37'0 0.0
2018-Jan-18 12:29N 36°50' E 030°37'0 0.0
2018-Jan-18 11:59N 36°50' E 030°37'0 0.0
2018-Jan-18 11:29N 36°50' E 030°37'0 0.0
2018-Jan-18 10:59N 36°50' E 030°37'0 0.0
2018-Jan-18 10:29N 36°50' E 030°37'0 0.0
2018-Jan-18 09:59N 36°50' E 030°37'0 0.5
2018-Jan-18 09:30N 36°50' E 030°37'4 7.1
2018-Jan-18 09:01N 36°49' E 030°41'714.5
2018-Jan-18 08:30N 36°44' E 030°48'816.4
2018-Jan-18 08:01N 36°40' E 030°56'815.3
2018-Jan-18 07:31N 36°36' E 031°05'815.7
2018-Jan-18 07:00N 36°33' E 031°13'815.6
2018-Jan-18 06:30N 36°29' E 031°22'  
Track history (hours):
 
Tides and Currents Weather Stations Pressure Air Temp Water Temp Dewpoint Dewpoint Depression Visibility Wind Speed Wind Dir Waves Ship Positions

Nicolas Delmas

Last reported at 2018-Jan-21 12:28 UTC. Time now 2018-Jan-23 04:19 UTC.
Position N 34°39' E 033°03'.

Length 196 m; draft 9.6 m.

Type: Ship. MMSI: 311326000.

Date/timePositionNaut miles runAvg speedWind from/ knotsBaromVisibWave heightAir tempDewpointWater temp
2018-Jan-21 12:28N 34°39' E 033°03'2 3.6
2018-Jan-21 12:00N 34°39' E 033°01'0 0.1
2018-Jan-21 11:28N 34°39' E 033°01'0 0.0
2018-Jan-21 10:58N 34°39' E 033°01'0 0.0
2018-Jan-21 10:28N 34°39' E 033°01'0 0.0
2018-Jan-21 09:58N 34°39' E 033°01'0 0.0
2018-Jan-21 09:25N 34°39' E 033°01'0 0.0
2018-Jan-21 08:58N 34°39' E 033°01'0 0.0
2018-Jan-21 08:28N 34°39' E 033°01'0 0.0
2018-Jan-21 07:55N 34°39' E 033°01'0 0.0
2018-Jan-21 07:28N 34°39' E 033°01'0 0.0
2018-Jan-21 06:58N 34°39' E 033°01'0 0.0
2018-Jan-21 06:28N 34°39' E 033°01'0 0.0
2018-Jan-21 05:58N 34°39' E 033°01'0 0.0
2018-Jan-21 05:28N 34°39' E 033°01'0 0.6
2018-Jan-21 05:00N 34°39' E 033°01'2 3.7
2018-Jan-21 04:22N 34°38' E 033°04'0 0.4
2018-Jan-21 04:00N 34°38' E 033°04'157 5.8
2018-Jan-20 00:50N 36°05' E 030°24'411.7
2018-Jan-20 00:30N 36°06' E 030°29'611.5
2018-Jan-20 00:00N 36°09' E 030°35'612.0
2018-Jan-19 23:30N 36°13' E 030°40'611.1
2018-Jan-19 23:00N 36°18' E 030°43'611.3
2018-Jan-19 22:30N 36°24' E 030°43'611.1
2018-Jan-19 22:00N 36°29' E 030°43'611.1
2018-Jan-19 21:30N 36°35' E 030°43'611.4
2018-Jan-19 21:00N 36°41' E 030°43'510.9
2018-Jan-19 20:30N 36°46' E 030°42'510.6
2018-Jan-19 20:00N 36°50' E 030°38'1 1.4
2018-Jan-19 19:29N 36°50' E 030°37'0 0.0
2018-Jan-19 18:59N 36°50' E 030°37'0 0.0
2018-Jan-19 18:29N 36°50' E 030°37'0 0.0
2018-Jan-19 17:59N 36°50' E 030°37'0 0.0
2018-Jan-19 17:29N 36°50' E 030°37'0 0.0
2018-Jan-19 16:59N 36°50' E 030°37'0 0.0
2018-Jan-19 16:29N 36°50' E 030°37'0 0.0
2018-Jan-19 15:59N 36°50' E 030°37'0 0.0
2018-Jan-19 15:29N 36°50' E 030°37'0 0.0
2018-Jan-19 14:59N 36°50' E 030°37'0 0.0
2018-Jan-19 14:29N 36°50' E 030°37'0 0.0
2018-Jan-19 13:59N 36°50' E 030°37'0 0.0
2018-Jan-19 13:29N 36°50' E 030°37'0 0.0
2018-Jan-19 12:56N 36°50' E 030°37'0 0.0
2018-Jan-19 12:29N 36°50' E 030°37'0 0.0
2018-Jan-19 11:59N 36°50' E 030°37'0 0.0
2018-Jan-19 11:29N 36°50' E 030°37'0 0.0
2018-Jan-19 10:59N 36°50' E 030°37'0 0.0
2018-Jan-19 10:29N 36°50' E 030°37'0 0.0
2018-Jan-19 09:59N 36°50' E 030°37'0 0.0
2018-Jan-19 09:29N 36°50' E 030°37'0 0.0
2018-Jan-19 08:59N 36°50' E 030°37'0 0.0
2018-Jan-19 08:29N 36°50' E 030°37'0 0.0
2018-Jan-19 07:59N 36°50' E 030°37'0 0.0
2018-Jan-19 07:29N 36°50' E 030°37'0 0.0
2018-Jan-19 06:59N 36°50' E 030°37'0 0.0
2018-Jan-19 06:29N 36°50' E 030°37'0 0.0
2018-Jan-19 05:59N 36°50' E 030°37'0 0.0
2018-Jan-19 05:29N 36°50' E 030°37'0 0.0
2018-Jan-19 04:59N 36°50' E 030°37'0 0.0
2018-Jan-19 04:29N 36°50' E 030°37'0 0.0
2018-Jan-19 03:59N 36°50' E 030°37'0 0.0
2018-Jan-19 03:29N 36°50' E 030°37'0 0.0
2018-Jan-19 02:59N 36°50' E 030°37'0 0.0
2018-Jan-19 02:29N 36°50' E 030°37'0 0.0
2018-Jan-19 01:59N 36°50' E 030°37'0 0.0
2018-Jan-19 01:29N 36°50' E 030°37'0 0.0
2018-Jan-19 00:59N 36°50' E 030°37'0 0.0
2018-Jan-19 00:29N 36°50' E 030°37'0 0.0
2018-Jan-18 23:59N 36°50' E 030°37'0 0.0
2018-Jan-18 23:29N 36°50' E 030°37'0 0.0
2018-Jan-18 22:59N 36°50' E 030°37'0 0.0
2018-Jan-18 22:29N 36°50' E 030°37'0 0.0
2018-Jan-18 21:59N 36°50' E 030°37'0 0.0
2018-Jan-18 21:29N 36°50' E 030°37'0 0.0
2018-Jan-18 20:59N 36°50' E 030°37'0 0.0
2018-Jan-18 20:29N 36°50' E 030°37'0 0.0
2018-Jan-18 19:59N 36°50' E 030°37'0 0.0
2018-Jan-18 19:29N 36°50' E 030°37'0 0.0
2018-Jan-18 18:59N 36°50' E 030°37'0 0.0
2018-Jan-18 18:29N 36°50' E 030°37'0 0.0
2018-Jan-18 17:59N 36°50' E 030°37'0 0.0
2018-Jan-18 17:29N 36°50' E 030°37'0 0.0
2018-Jan-18 16:59N 36°50' E 030°37'0 0.0
2018-Jan-18 16:29N 36°50' E 030°37'0 0.0
2018-Jan-18 15:59N 36°50' E 030°37'0 0.0
2018-Jan-18 15:29N 36°50' E 030°37'0 0.0
2018-Jan-18 14:56N 36°50' E 030°37'0 0.0
2018-Jan-18 14:29N 36°50' E 030°37'0 0.0
2018-Jan-18 13:59N 36°50' E 030°37'0 0.0
2018-Jan-18 13:29N 36°50' E 030°37'0 0.0
2018-Jan-18 12:59N 36°50' E 030°37'0 0.0
2018-Jan-18 12:29N 36°50' E 030°37'0 0.0
2018-Jan-18 11:59N 36°50' E 030°37'0 0.0
2018-Jan-18 11:29N 36°50' E 030°37'0 0.0
2018-Jan-18 10:59N 36°50' E 030°37'0 0.0
2018-Jan-18 10:29N 36°50' E 030°37'0 0.0
2018-Jan-18 09:59N 36°50' E 030°37'0 0.5
2018-Jan-18 09:30N 36°50' E 030°37'4 7.1
2018-Jan-18 09:01N 36°49' E 030°41'714.5
2018-Jan-18 08:30N 36°44' E 030°48'816.4
2018-Jan-18 08:01N 36°40' E 030°56'815.3
2018-Jan-18 07:31N 36°36' E 031°05'815.7
2018-Jan-18 07:00N 36°33' E 031°13'815.6
2018-Jan-18 06:30N 36°29' E 031°22'  

Dump ship's entire track history